createdAt,value
2022-11-16T00:02:08.364Z,7.81
2022-11-16T00:04:55.224Z,7.46
2022-11-16T00:07:42.036Z,7.58
2022-11-16T00:10:28.832Z,7.69
2022-11-16T00:13:15.637Z,7.57
2022-11-16T00:16:03.478Z,7.28
2022-11-16T00:18:56.403Z,7.32
2022-11-16T00:21:43.553Z,7.28
2022-11-16T00:24:30.334Z,7.17
2022-11-16T00:27:17.407Z,7.17
2022-11-16T00:30:04.607Z,6.99
2022-11-16T00:32:51.382Z,7.07
2022-11-16T00:35:39.694Z,7.31
2022-11-16T00:38:26.472Z,7.35
2022-11-16T00:41:13.420Z,7.43
2022-11-16T00:44:00.196Z,7.51
2022-11-16T00:46:47.352Z,7.55
2022-11-16T00:49:34.165Z,7.69
2022-11-16T00:52:20.965Z,7.80
2022-11-16T00:55:08.190Z,7.56
2022-11-16T00:57:56.215Z,7.48
2022-11-16T01:00:44.939Z,7.62
2022-11-16T01:03:31.998Z,7.75
2022-11-16T01:06:18.884Z,7.82
2022-11-16T01:09:08.379Z,7.85
2022-11-16T01:12:10.379Z,7.69
2022-11-16T01:14:57.791Z,7.74
2022-11-16T01:17:44.901Z,7.59
2022-11-16T01:20:31.727Z,7.60
2022-11-16T01:23:18.467Z,7.76
2022-11-16T01:26:05.955Z,7.35
2022-11-16T01:28:55.387Z,7.31
2022-11-16T01:31:43.108Z,7.69
2022-11-16T01:34:30.057Z,7.88
2022-11-16T01:37:23.894Z,8.01
2022-11-16T01:40:12.756Z,7.70
2022-11-16T01:43:00.674Z,7.93
2022-11-16T01:45:47.491Z,7.83
2022-11-16T01:48:35.104Z,7.69
2022-11-16T01:51:22.989Z,7.63
2022-11-16T01:54:12.886Z,7.15
2022-11-16T01:57:13.556Z,7.43
2022-11-16T02:00:10.610Z,7.31
2022-11-16T02:03:00.396Z,7.27
2022-11-16T02:06:11.669Z,7.34
2022-11-16T02:09:57.136Z,6.96
2022-11-16T02:13:07.405Z,7.43
2022-11-16T02:16:23.456Z,6.96
2022-11-16T02:19:10.505Z,6.62
2022-11-16T02:22:02.683Z,6.56
2022-11-16T02:25:17.689Z,6.70
2022-11-16T02:28:39.952Z,6.62
2022-11-16T02:31:33.516Z,6.80
2022-11-16T02:34:21.459Z,6.62
2022-11-16T02:37:12.620Z,6.48
2022-11-16T02:40:02.491Z,6.08
2022-11-16T02:43:14.796Z,6.25
2022-11-16T02:46:05.363Z,6.12
2022-11-16T02:48:57.308Z,6.00
2022-11-16T02:51:46.843Z,6.13
2022-11-16T02:54:34.144Z,6.09
2022-11-16T02:57:28.510Z,6.11
2022-11-16T03:00:25.068Z,6.09
2022-11-16T03:03:22.237Z,6.25
2022-11-16T03:06:12.868Z,6.17
2022-11-16T03:09:19.983Z,6.05
2022-11-16T03:12:11.600Z,6.55
2022-11-16T03:15:05.921Z,6.66
2022-11-16T03:17:54.050Z,6.86
2022-11-16T03:20:48.145Z,7.05
2022-11-16T03:23:35.140Z,7.10
2022-11-16T03:26:28.306Z,7.09
2022-11-16T03:29:26.113Z,6.44
2022-11-16T03:32:30.259Z,6.39
2022-11-16T03:35:04.360Z,6.43
2022-11-16T03:37:31.994Z,6.84
2022-11-16T03:40:01.591Z,7.04
2022-11-16T03:42:31.967Z,7.16
2022-11-16T03:44:59.249Z,7.23
2022-11-16T03:47:25.740Z,7.12
2022-11-16T03:49:52.752Z,7.13
2022-11-16T03:52:22.372Z,7.36
2022-11-16T03:54:50.232Z,7.50
2022-11-16T03:57:18.490Z,7.59
2022-11-16T03:59:50.114Z,7.65
2022-11-16T04:02:16.620Z,7.52
2022-11-16T04:05:01.722Z,7.49
2022-11-16T04:07:46.843Z,6.93
2022-11-16T04:10:40.707Z,6.84
2022-11-16T04:13:29.781Z,6.75
2022-11-16T04:16:14.931Z,6.84
2022-11-16T04:19:02.235Z,7.01
2022-11-16T04:21:52.792Z,7.23
2022-11-16T04:24:24.767Z,7.42
2022-11-16T04:27:17.569Z,7.54
2022-11-16T04:29:44.445Z,7.53
2022-11-16T04:32:29.674Z,7.03
2022-11-16T04:35:15.962Z,7.12
2022-11-16T04:37:49.443Z,7.07
2022-11-16T04:40:23.345Z,7.31
2022-11-16T04:42:53.720Z,7.39
2022-11-16T04:45:39.814Z,7.30
2022-11-16T04:48:08.261Z,7.14
2022-11-16T04:50:36.693Z,7.00
2022-11-16T04:53:04.548Z,7.09
2022-11-16T04:55:36.082Z,7.21
2022-11-16T04:58:02.862Z,7.44
2022-11-16T05:00:29.751Z,7.35
2022-11-16T05:03:01.021Z,7.39
2022-11-16T05:05:28.694Z,7.34
2022-11-16T05:07:55.789Z,7.23
2022-11-16T05:10:26.916Z,7.36
2022-11-16T05:12:54.424Z,7.36
2022-11-16T05:15:22.247Z,7.29
2022-11-16T05:17:49.004Z,7.21
2022-11-16T05:20:40.861Z,7.25
2022-11-16T05:23:28.055Z,7.13
2022-11-16T05:25:56.534Z,7.03
2022-11-16T05:28:23.049Z,6.93
2022-11-16T05:30:49.536Z,6.94
2022-11-16T05:33:20.348Z,6.77
2022-11-16T05:35:50.831Z,6.71
2022-11-16T05:38:18.967Z,6.84
2022-11-16T05:40:49.076Z,6.70
2022-11-16T05:43:15.506Z,6.73
2022-11-16T05:45:50.786Z,6.68
2022-11-16T05:48:17.330Z,6.68
2022-11-16T05:50:44.044Z,6.64
2022-11-16T05:53:18.023Z,6.67
2022-11-16T05:55:44.508Z,6.70
2022-11-16T05:58:11.243Z,6.72
2022-11-16T06:00:37.839Z,6.81
2022-11-16T06:03:05.385Z,6.77
2022-11-16T06:05:39.983Z,6.68
2022-11-16T06:08:07.319Z,6.84
2022-11-16T06:10:33.797Z,6.68
2022-11-16T06:13:00.315Z,6.63
2022-11-16T06:15:26.803Z,6.70
2022-11-16T06:17:53.289Z,6.69
2022-11-16T06:20:20.743Z,6.68
2022-11-16T06:22:47.275Z,6.63
2022-11-16T06:25:13.954Z,6.66
2022-11-16T06:27:43.139Z,6.64
2022-11-16T06:30:14.958Z,6.62
2022-11-16T06:32:41.607Z,6.66
2022-11-16T06:35:09.322Z,6.68
2022-11-16T06:37:36.950Z,6.73
2022-11-16T06:40:03.788Z,6.85
2022-11-16T06:42:33.924Z,6.78
2022-11-16T06:45:01.129Z,6.87
2022-11-16T06:47:32.626Z,6.81
2022-11-16T06:50:00.742Z,6.76
2022-11-16T06:52:27.281Z,6.77
2022-11-16T06:54:55.353Z,6.79
2022-11-16T06:57:21.917Z,6.91
2022-11-16T06:59:48.449Z,6.91
2022-11-16T07:02:16.210Z,6.97
2022-11-16T07:04:44.444Z,7.00
2022-11-16T07:07:10.939Z,6.97
2022-11-16T07:09:38.791Z,6.98
2022-11-16T07:12:05.581Z,6.99
2022-11-16T07:14:36.458Z,6.98
2022-11-16T07:17:09.362Z,7.01
2022-11-16T07:19:36.777Z,7.13
2022-11-16T07:22:04.195Z,7.02
2022-11-16T07:24:30.751Z,7.28
2022-11-16T07:26:57.319Z,7.44
2022-11-16T07:29:25.788Z,7.38
2022-11-16T07:32:10.830Z,6.98
2022-11-16T07:34:59.073Z,6.88
2022-11-16T07:37:26.573Z,6.82
2022-11-16T07:39:53.243Z,6.76
2022-11-16T07:42:20.110Z,6.80
2022-11-16T07:44:59.122Z,6.76
2022-11-16T07:47:25.603Z,6.74
2022-11-16T07:49:52.479Z,6.98
2022-11-16T07:52:21.405Z,7.03
2022-11-16T07:54:55.180Z,7.09
2022-11-16T07:57:46.806Z,7.19
2022-11-16T08:00:16.160Z,7.02
2022-11-16T08:02:52.666Z,6.88
2022-11-16T08:05:20.538Z,6.82
2022-11-16T08:07:53.385Z,6.85
2022-11-16T08:10:23.505Z,6.85
2022-11-16T08:12:50.176Z,6.90
2022-11-16T08:15:18.910Z,6.97
2022-11-16T08:17:45.572Z,6.93
2022-11-16T08:20:12.847Z,6.91
2022-11-16T08:22:40.109Z,6.87
2022-11-16T08:25:07.950Z,6.80
2022-11-16T08:27:34.964Z,6.86
2022-11-16T08:30:04.319Z,6.84
2022-11-16T08:32:30.946Z,6.92
2022-11-16T08:34:57.487Z,6.91
2022-11-16T08:37:25.321Z,6.89
2022-11-16T08:39:57.206Z,6.96
2022-11-16T08:42:23.716Z,7.11
2022-11-16T08:44:50.200Z,7.04
2022-11-16T08:47:19.189Z,7.01
2022-11-16T08:49:50.000Z,7.07
2022-11-16T08:52:18.315Z,7.07
2022-11-16T08:54:44.905Z,7.13
2022-11-16T08:57:11.441Z,7.28
2022-11-16T08:59:39.591Z,7.09
2022-11-16T09:02:10.473Z,7.10
2022-11-16T09:04:37.388Z,7.13
2022-11-16T09:07:04.027Z,7.08
2022-11-16T09:09:30.510Z,7.13
2022-11-16T09:11:59.025Z,7.13
2022-11-16T09:14:28.919Z,7.19
2022-11-16T09:16:57.604Z,7.33
2022-11-16T09:19:26.753Z,7.41
2022-11-16T09:21:53.195Z,7.31
2022-11-16T09:24:19.676Z,7.33
2022-11-16T09:26:46.124Z,7.38
2022-11-16T09:29:14.673Z,7.41
2022-11-16T09:31:41.486Z,7.51
2022-11-16T09:34:08.062Z,7.56
2022-11-16T09:36:35.061Z,7.51
2022-11-16T09:39:29.494Z,7.63
2022-11-16T09:42:11.846Z,7.50
2022-11-16T09:44:53.425Z,7.66
2022-11-16T09:47:23.820Z,7.50
2022-11-16T09:50:01.632Z,7.75
2022-11-16T09:52:32.425Z,7.70
2022-11-16T09:55:06.242Z,7.59
2022-11-16T09:57:37.398Z,7.65
2022-11-16T10:00:13.553Z,7.57
2022-11-16T10:02:47.649Z,7.62
2022-11-16T10:05:22.177Z,7.48
2022-11-16T10:07:54.764Z,7.69
2022-11-16T10:10:34.788Z,7.85
2022-11-16T10:13:27.141Z,8.22
2022-11-16T10:16:04.104Z,8.55
2022-11-16T10:18:55.532Z,8.53
2022-11-16T10:21:51.440Z,8.55
2022-11-16T10:24:25.268Z,8.80
2022-11-16T10:27:01.434Z,8.71
2022-11-16T10:29:42.901Z,8.66
2022-11-16T10:32:28.061Z,8.79
2022-11-16T10:34:59.785Z,8.89
2022-11-16T10:37:31.462Z,8.87
2022-11-16T10:40:34.161Z,8.92
2022-11-16T10:43:14.164Z,8.81
2022-11-16T10:45:43.626Z,8.87
2022-11-16T10:48:36.924Z,8.88
2022-11-16T10:51:05.041Z,9.20
2022-11-16T10:53:49.758Z,9.53
2022-11-16T10:56:31.808Z,9.58
2022-11-16T10:59:01.095Z,9.58
2022-11-16T11:01:39.371Z,9.95
2022-11-16T11:04:20.942Z,9.90
2022-11-16T11:06:56.822Z,9.71
2022-11-16T11:09:37.849Z,9.78
2022-11-16T11:12:38.393Z,10.11
2022-11-16T11:15:10.947Z,9.65
2022-11-16T11:17:40.210Z,9.50
2022-11-16T11:20:21.089Z,9.53
2022-11-16T11:22:58.796Z,9.50
2022-11-16T11:25:33.328Z,9.48
2022-11-16T11:28:26.381Z,9.20
2022-11-16T11:31:03.776Z,9.31
2022-11-16T11:33:36.515Z,9.49
2022-11-16T11:36:09.434Z,9.53
2022-11-16T11:39:00.314Z,9.53
2022-11-16T11:41:35.883Z,9.69
2022-11-16T11:44:14.699Z,9.72
2022-11-16T11:47:29.026Z,10.51
2022-11-16T11:49:41.142Z,10.75
2022-11-16T11:52:19.191Z,10.45
2022-11-16T11:54:47.699Z,10.41
2022-11-16T11:57:22.930Z,10.40
2022-11-16T11:59:52.430Z,10.58
2022-11-16T12:02:40.692Z,10.62
2022-11-16T12:05:27.239Z,10.32
2022-11-16T12:08:05.456Z,10.33
2022-11-16T12:10:37.753Z,10.66
2022-11-16T12:13:28.605Z,10.60
2022-11-16T12:16:03.603Z,10.69
2022-11-16T12:18:55.042Z,10.94
2022-11-16T12:21:41.346Z,10.63
2022-11-16T12:24:15.869Z,10.92
2022-11-16T12:26:57.761Z,11.06
2022-11-16T12:29:37.626Z,10.83
2022-11-16T12:32:33.907Z,10.81
2022-11-16T12:35:08.755Z,10.54
2022-11-16T12:37:49.252Z,10.62
2022-11-16T12:40:31.066Z,10.59
2022-11-16T12:43:00.505Z,10.60
2022-11-16T12:45:57.589Z,10.57
2022-11-16T12:48:45.390Z,10.73
2022-11-16T12:51:36.730Z,10.72
2022-11-16T12:54:18.482Z,10.79
2022-11-16T12:57:09.790Z,10.79
2022-11-16T12:59:43.859Z,10.95
2022-11-16T13:02:47.532Z,10.92
2022-11-16T13:05:20.346Z,10.89
2022-11-16T13:07:57.330Z,10.83
2022-11-16T13:10:35.316Z,10.91
2022-11-16T13:16:01.998Z,11.13
2022-11-16T13:18:29.666Z,11.29
2022-11-16T13:21:05.621Z,11.59
2022-11-16T13:23:32.522Z,11.80
2022-11-16T13:26:15.950Z,11.76
2022-11-16T13:28:57.389Z,11.57
2022-11-16T13:32:02.779Z,11.75
2022-11-16T13:34:33.747Z,11.91
2022-11-16T13:37:00.240Z,11.85
2022-11-16T13:39:57.813Z,12.07
2022-11-16T13:42:25.277Z,12.08
2022-11-16T13:44:53.285Z,12.22
2022-11-16T13:47:27.311Z,12.14
2022-11-16T13:50:06.815Z,12.20
2022-11-16T13:55:44.152Z,12.26
2022-11-16T13:58:21.547Z,12.25
2022-11-16T14:00:59.685Z,12.06
2022-11-16T14:03:29.821Z,11.94
2022-11-16T14:05:56.599Z,11.83
2022-11-16T14:08:23.050Z,11.87
2022-11-16T14:10:52.477Z,11.85
2022-11-16T14:13:37.330Z,11.89
2022-11-16T14:16:19.388Z,11.83
2022-11-16T14:18:48.188Z,11.81
2022-11-16T14:21:33.275Z,11.90
2022-11-16T14:24:25.937Z,11.81
2022-11-16T14:27:19.386Z,11.75
2022-11-16T14:29:58.061Z,11.47
2022-11-16T14:32:30.175Z,11.29
2022-11-16T14:34:58.311Z,11.15
2022-11-16T14:37:29.887Z,11.07
2022-11-16T14:40:16.697Z,10.92
2022-11-16T14:43:22.761Z,10.91
2022-11-16T14:45:56.703Z,10.86
2022-11-16T14:48:27.918Z,10.63
2022-11-16T14:51:11.151Z,10.58
2022-11-16T14:53:39.461Z,10.57
2022-11-16T14:56:07.341Z,10.55
2022-11-16T14:58:33.832Z,10.33
2022-11-16T15:01:03.390Z,10.36
2022-11-16T15:03:34.995Z,10.33
2022-11-16T15:06:03.650Z,10.21
2022-11-16T15:08:34.966Z,10.17
2022-11-16T15:11:01.563Z,10.13
2022-11-16T15:13:28.136Z,10.07
2022-11-16T15:16:16.085Z,10.00
2022-11-16T15:18:56.434Z,9.97
2022-11-16T15:21:24.237Z,9.86
2022-11-16T15:24:15.552Z,9.83
2022-11-16T15:26:38.494Z,9.73
2022-11-16T15:29:04.983Z,9.69
2022-11-16T15:31:31.448Z,9.62
2022-11-16T15:33:57.937Z,9.56
2022-11-16T15:36:39.484Z,9.47
2022-11-16T15:39:20.759Z,9.38
2022-11-16T15:41:48.013Z,9.28
2022-11-16T15:44:17.723Z,9.21
2022-11-16T15:46:50.628Z,9.09
2022-11-16T15:49:37.706Z,9.02
2022-11-16T15:52:05.336Z,9.02
2022-11-16T15:54:59.895Z,8.93
2022-11-16T15:57:26.604Z,8.96
2022-11-16T15:59:55.358Z,8.99
2022-11-16T16:02:24.839Z,9.01
2022-11-16T16:04:51.706Z,9.02
2022-11-16T16:07:41.434Z,8.77
2022-11-16T16:10:23.638Z,8.95
2022-11-16T16:12:52.567Z,8.92
2022-11-16T16:15:36.690Z,8.87
2022-11-16T16:18:13.763Z,8.95
2022-11-16T16:20:47.919Z,8.98
2022-11-16T16:23:17.725Z,8.96
2022-11-16T16:25:50.519Z,8.92
2022-11-16T16:28:17.345Z,8.73
2022-11-16T16:30:43.853Z,8.69
2022-11-16T16:33:18.974Z,8.68
2022-11-16T16:35:49.516Z,8.58
2022-11-16T16:38:15.988Z,8.55
2022-11-16T16:40:42.403Z,8.48
2022-11-16T16:43:08.865Z,8.47
2022-11-16T16:45:41.405Z,8.45
2022-11-16T16:48:11.743Z,8.26
2022-11-16T16:50:39.099Z,8.38
2022-11-16T16:53:06.278Z,8.35
2022-11-16T16:55:37.424Z,8.38
2022-11-16T16:58:05.054Z,8.39
2022-11-16T17:00:31.689Z,8.51
2022-11-16T17:03:01.138Z,8.44
2022-11-16T17:05:27.607Z,8.40
2022-11-16T17:07:55.548Z,8.37
2022-11-16T17:10:22.974Z,8.40
2022-11-16T17:12:52.759Z,8.39
2022-11-16T17:15:21.918Z,8.44
2022-11-16T17:17:48.466Z,8.36
2022-11-16T17:20:16.339Z,8.28
2022-11-16T17:22:43.129Z,8.12
2022-11-16T17:25:10.504Z,8.06
2022-11-16T17:27:37.157Z,8.08
2022-11-16T17:30:07.250Z,8.01
2022-11-16T17:32:33.713Z,8.00
2022-11-16T17:35:00.698Z,7.83
2022-11-16T17:37:29.640Z,7.78
2022-11-16T17:39:56.091Z,7.58
2022-11-16T17:42:22.590Z,7.74
2022-11-16T17:44:49.621Z,7.82
2022-11-16T17:47:16.068Z,7.89
2022-11-16T17:49:42.539Z,7.92
2022-11-16T17:52:09.027Z,7.90
2022-11-16T17:54:35.604Z,7.91
2022-11-16T17:57:02.051Z,7.77
2022-11-16T17:59:29.931Z,7.71
2022-11-16T18:01:57.879Z,7.68
2022-11-16T18:04:49.709Z,7.60
2022-11-16T18:07:40.144Z,7.56
2022-11-16T18:10:29.206Z,7.46
2022-11-16T18:13:16.062Z,7.43
2022-11-16T18:16:06.874Z,6.80
2022-11-16T18:18:59.332Z,7.10
2022-11-16T18:21:46.864Z,7.27
2022-11-16T18:24:33.779Z,7.38
2022-11-16T18:27:20.664Z,7.56
2022-11-16T18:30:08.385Z,7.64
2022-11-16T18:32:55.492Z,7.53
2022-11-16T18:35:43.513Z,7.42
2022-11-16T18:38:30.549Z,7.42
2022-11-16T18:41:21.064Z,7.37
2022-11-16T18:44:14.410Z,7.36
2022-11-16T18:47:03.045Z,7.68
2022-11-16T18:49:52.311Z,7.84
2022-11-16T18:52:39.687Z,8.00
2022-11-16T18:55:26.542Z,8.05
2022-11-16T18:58:35.848Z,7.52
2022-11-16T19:01:23.410Z,7.38
2022-11-16T19:04:10.890Z,7.60
2022-11-16T19:06:57.764Z,7.82
2022-11-16T19:09:44.697Z,7.46
2022-11-16T19:12:32.011Z,7.76
2022-11-16T19:15:18.950Z,7.83
2022-11-16T19:18:21.300Z,7.89
2022-11-16T19:21:10.728Z,7.75
2022-11-16T19:23:57.734Z,7.21
2022-11-16T19:26:44.598Z,7.33
2022-11-16T19:29:34.096Z,7.31
2022-11-16T19:32:20.918Z,7.67
2022-11-16T19:35:11.974Z,7.58
2022-11-16T19:37:58.781Z,7.77
2022-11-16T19:40:45.620Z,7.67
2022-11-16T19:43:33.468Z,7.68
2022-11-16T19:46:21.459Z,7.49
2022-11-16T19:49:10.120Z,7.51
2022-11-16T19:51:56.907Z,7.77
2022-11-16T19:54:43.993Z,7.77
2022-11-16T19:57:30.847Z,7.83
2022-11-16T20:00:17.914Z,7.89
2022-11-16T20:03:05.890Z,7.87
2022-11-16T20:05:52.847Z,7.83
2022-11-16T20:08:40.954Z,7.65
2022-11-16T20:11:30.039Z,7.62
2022-11-16T20:14:16.958Z,7.66
2022-11-16T20:17:04.896Z,7.70
2022-11-16T20:19:51.663Z,7.74
2022-11-16T20:22:38.431Z,7.81
2022-11-16T20:25:28.971Z,7.84
2022-11-16T20:28:15.748Z,7.76
2022-11-16T20:31:10.644Z,7.69
2022-11-16T20:34:02.765Z,7.55
2022-11-16T20:36:52.036Z,7.47
2022-11-16T20:39:38.898Z,7.48
2022-11-16T20:42:25.667Z,7.48
2022-11-16T20:45:12.458Z,7.50
2022-11-16T20:47:59.458Z,7.49
2022-11-16T20:50:51.484Z,7.45
2022-11-16T20:53:38.410Z,7.37
2022-11-16T20:56:25.839Z,7.48
2022-11-16T20:59:12.716Z,7.26
2022-11-16T21:01:59.571Z,7.38
2022-11-16T21:04:46.389Z,7.45
2022-11-16T21:07:33.216Z,7.40
2022-11-16T21:10:20.062Z,7.39
2022-11-16T21:13:30.934Z,7.53
2022-11-16T21:16:17.759Z,7.52
2022-11-16T21:19:07.331Z,7.58
2022-11-16T21:21:54.128Z,7.70
2022-11-16T21:24:40.874Z,7.64
2022-11-16T21:27:27.668Z,7.55
2022-11-16T21:30:14.530Z,7.47
2022-11-16T21:33:01.317Z,7.54
2022-11-16T21:35:48.103Z,7.35
2022-11-16T21:38:34.978Z,7.50
2022-11-16T21:41:23.181Z,7.59
2022-11-16T21:44:10.143Z,7.45
2022-11-16T21:46:56.883Z,7.44
2022-11-16T21:50:16.423Z,7.45
2022-11-16T21:52:50.444Z,7.21
2022-11-16T21:55:37.239Z,7.21
2022-11-16T21:58:24.578Z,6.91
2022-11-16T22:01:15.982Z,6.84
2022-11-16T22:04:25.986Z,7.00
2022-11-16T22:07:36.777Z,7.04
2022-11-16T22:10:23.656Z,7.00
2022-11-16T22:13:10.410Z,6.97
2022-11-16T22:15:57.254Z,7.00
2022-11-16T22:18:44.177Z,7.12
2022-11-16T22:21:30.928Z,7.07
2022-11-16T22:24:17.693Z,6.84
2022-11-16T22:27:04.755Z,6.82
2022-11-16T22:29:51.510Z,6.82
2022-11-16T22:32:38.269Z,6.86
2022-11-16T22:35:25.109Z,6.75
2022-11-16T22:38:11.928Z,6.80
2022-11-16T22:40:58.678Z,6.38
2022-11-16T22:43:45.524Z,6.22
2022-11-16T22:46:32.308Z,6.53
2022-11-16T22:49:19.270Z,6.42
2022-11-16T22:52:06.074Z,6.19
2022-11-16T22:54:52.823Z,6.38
2022-11-16T22:57:39.559Z,6.39
2022-11-16T23:00:26.368Z,6.46
2022-11-16T23:03:13.217Z,6.58
2022-11-16T23:06:00.669Z,6.54
2022-11-16T23:08:47.761Z,6.47
2022-11-16T23:11:53.213Z,6.50
2022-11-16T23:15:00.872Z,6.44
2022-11-16T23:17:47.656Z,6.34
2022-11-16T23:20:53.035Z,6.32
2022-11-16T23:23:58.158Z,6.43
2022-11-16T23:27:03.365Z,6.43
2022-11-16T23:29:50.285Z,6.59
2022-11-16T23:32:37.113Z,6.63
2022-11-16T23:35:24.115Z,6.61
2022-11-16T23:38:10.911Z,6.62
2022-11-16T23:40:57.670Z,6.59
2022-11-16T23:43:59.833Z,6.41
2022-11-16T23:46:46.686Z,6.59
2022-11-16T23:49:33.460Z,6.46
2022-11-16T23:52:20.264Z,6.33
2022-11-16T23:55:07.450Z,6.31
2022-11-16T23:57:54.593Z,6.34
